Terminal Aerodrome Forecast
Issued by NWS

Home | Current Version | Previous Version | Text Only | Print | Product List | Glossary On
Versions: 1 2 3 4 5 6 7 8 9 10 11 12 13 14 15 16 17 18 19
000
FTUS46 KSEW 050901 AAB
TAFHQM
TAF AMD
KHQM 050901Z 0509/0606 VRB03KT 3/4SM BR OVC003
      TEMPO 0509/0513 1/4SM FG VV001
     FM051500 05008KT 6SM BCFG FEW006 FEW250
     FM051700 09008KT P6SM FEW250
     FM052100 23010KT P6SM FEW250=

USA.gov is the U.S. government's official web portal to all federal, state and local government web resources and services.